createdAt,value
2022-07-28T00:00:03.180Z,21.85
2022-07-28T00:02:31.602Z,21.79
2022-07-28T00:04:59.127Z,21.79
2022-07-28T00:07:26.379Z,21.77
2022-07-28T00:09:58.234Z,21.72
2022-07-28T00:12:27.493Z,21.67
2022-07-28T00:14:55.105Z,21.66
2022-07-28T00:17:21.888Z,21.64
2022-07-28T00:19:50.996Z,21.60
2022-07-28T00:22:18.608Z,21.53
2022-07-28T00:24:45.446Z,21.46
2022-07-28T00:27:12.684Z,21.41
2022-07-28T00:29:39.458Z,21.37
2022-07-28T00:32:17.732Z,21.32
2022-07-28T00:34:44.830Z,21.23
2022-07-28T00:37:13.379Z,21.20
2022-07-28T00:39:42.301Z,21.17
2022-07-28T00:42:09.231Z,21.14
2022-07-28T00:44:39.038Z,21.16
2022-07-28T00:47:05.843Z,21.20
2022-07-28T00:49:32.914Z,21.20
2022-07-28T00:52:00.570Z,21.14
2022-07-28T00:54:28.163Z,21.09
2022-07-28T00:56:55.149Z,21.05
2022-07-28T00:59:21.868Z,21.01
2022-07-28T01:01:49.078Z,20.97
2022-07-28T01:04:16.982Z,20.85
2022-07-28T01:07:18.567Z,20.84
2022-07-28T01:10:13.374Z,20.81
2022-07-28T01:13:03.047Z,20.78
2022-07-28T01:15:29.505Z,20.74
2022-07-28T01:18:10.466Z,20.68
2022-07-28T01:20:54.176Z,20.72
2022-07-28T01:23:48.719Z,20.71
2022-07-28T01:26:39.774Z,20.71
2022-07-28T01:29:48.170Z,20.64
2022-07-28T01:32:27.338Z,20.58
2022-07-28T01:35:11.769Z,20.52
2022-07-28T01:37:45.807Z,20.53
2022-07-28T01:40:16.744Z,20.53
2022-07-28T01:42:54.341Z,20.53
2022-07-28T01:45:21.647Z,20.52
2022-07-28T01:47:49.967Z,20.52
2022-07-28T01:50:21.214Z,20.53
2022-07-28T01:52:49.834Z,20.51
2022-07-28T01:55:20.376Z,20.49
2022-07-28T01:57:49.029Z,20.47
2022-07-28T02:00:16.293Z,20.46
2022-07-28T02:02:45.884Z,20.44
2022-07-28T02:05:15.984Z,20.38
2022-07-28T02:07:48.277Z,20.39
2022-07-28T02:10:17.779Z,20.37
2022-07-28T02:12:46.906Z,20.37
2022-07-28T02:15:15.870Z,20.33
2022-07-28T02:17:45.892Z,20.29
2022-07-28T02:20:14.995Z,20.28
2022-07-28T02:22:43.748Z,20.23
2022-07-28T02:25:10.911Z,20.16
2022-07-28T02:28:01.922Z,20.16
2022-07-28T02:30:35.952Z,20.09
2022-07-28T02:33:08.309Z,20.04
2022-07-28T02:35:57.526Z,20.05
2022-07-28T02:38:30.374Z,20.12
2022-07-28T02:41:01.122Z,20.16
2022-07-28T02:43:50.138Z,20.18
2022-07-28T02:46:20.140Z,20.14
2022-07-28T02:48:52.544Z,20.16
2022-07-28T02:51:23.549Z,20.14
2022-07-28T02:53:51.088Z,20.11
2022-07-28T02:56:18.309Z,20.10
2022-07-28T02:58:46.788Z,20.11
2022-07-28T03:01:17.461Z,20.11
2022-07-28T03:03:45.992Z,20.04
2022-07-28T03:06:13.006Z,20.07
2022-07-28T03:08:39.662Z,20.05
2022-07-28T03:11:10.908Z,20.05
2022-07-28T03:13:39.684Z,20.00
2022-07-28T03:16:07.346Z,19.86
2022-07-28T03:18:34.189Z,19.80
2022-07-28T03:21:01.017Z,19.82
2022-07-28T03:23:35.014Z,19.86
2022-07-28T03:26:06.823Z,19.85
2022-07-28T03:28:34.149Z,19.79
2022-07-28T03:31:05.677Z,19.81
2022-07-28T03:33:33.471Z,19.80
2022-07-28T03:36:04.753Z,19.82
2022-07-28T03:38:41.081Z,19.75
2022-07-28T03:41:10.061Z,19.70
2022-07-28T03:43:38.148Z,19.62
2022-07-28T03:46:07.570Z,19.60
2022-07-28T03:48:37.876Z,19.59
2022-07-28T03:51:04.521Z,19.68
2022-07-28T03:53:31.395Z,19.74
2022-07-28T03:55:58.335Z,19.72
2022-07-28T03:58:28.837Z,19.75
2022-07-28T04:00:56.606Z,19.71
2022-07-28T04:03:37.656Z,19.73
2022-07-28T04:06:10.935Z,19.65
2022-07-28T04:08:37.666Z,19.68
2022-07-28T04:11:04.538Z,19.70
2022-07-28T04:13:36.573Z,19.74
2022-07-28T04:16:04.527Z,19.74
2022-07-28T04:18:31.253Z,19.79
2022-07-28T04:20:58.748Z,19.79
2022-07-28T04:23:25.488Z,19.77
2022-07-28T04:25:52.214Z,19.87
2022-07-28T04:28:18.946Z,19.93
2022-07-28T04:30:46.124Z,19.98
2022-07-28T04:33:12.936Z,20.02
2022-07-28T04:35:39.644Z,20.04
2022-07-28T04:38:06.418Z,20.02
2022-07-28T04:40:34.409Z,20.10
2022-07-28T04:43:01.354Z,20.12
2022-07-28T04:45:28.151Z,20.12
2022-07-28T04:47:54.714Z,20.12
2022-07-28T04:50:21.639Z,20.18
2022-07-28T04:52:57.619Z,20.22
2022-07-28T04:55:25.135Z,20.21
2022-07-28T04:57:51.871Z,20.23
2022-07-28T05:00:19.980Z,20.29
2022-07-28T05:02:49.548Z,20.38
2022-07-28T05:05:16.249Z,20.46
2022-07-28T05:07:43.378Z,20.55
2022-07-28T05:10:11.965Z,20.59
2022-07-28T05:12:38.994Z,20.55
2022-07-28T05:15:06.685Z,20.59
2022-07-28T05:17:33.375Z,20.64
2022-07-28T05:20:00.085Z,20.70
2022-07-28T05:22:26.841Z,20.78
2022-07-28T05:24:53.552Z,20.84
2022-07-28T05:27:20.284Z,20.87
2022-07-28T05:29:48.082Z,20.86
2022-07-28T05:32:17.260Z,20.85
2022-07-28T05:34:45.338Z,20.90
2022-07-28T05:37:12.241Z,21.01
2022-07-28T05:39:39.055Z,21.13
2022-07-28T05:42:06.123Z,21.19
2022-07-28T05:44:37.813Z,21.19
2022-07-28T05:47:05.031Z,21.18
2022-07-28T05:49:31.689Z,21.25
2022-07-28T05:51:58.349Z,21.30
2022-07-28T05:54:25.249Z,21.36
2022-07-28T05:56:52.776Z,21.33
2022-07-28T05:59:19.439Z,21.37
2022-07-28T06:01:46.739Z,21.45
2022-07-28T06:04:29.670Z,21.60
2022-07-28T06:06:56.506Z,21.79
2022-07-28T06:09:23.157Z,22.03
2022-07-28T06:11:50.507Z,22.18
2022-07-28T06:14:18.322Z,22.17
2022-07-28T06:16:45.431Z,22.13
2022-07-28T06:19:12.221Z,22.14
2022-07-28T06:21:38.888Z,22.21
2022-07-28T06:24:08.425Z,22.32
2022-07-28T06:26:43.661Z,22.35
2022-07-28T06:29:11.266Z,22.45
2022-07-28T06:31:38.951Z,22.54
2022-07-28T06:34:06.031Z,22.67
2022-07-28T06:36:32.680Z,22.82
2022-07-28T06:38:59.359Z,22.96
2022-07-28T06:41:26.060Z,23.05
2022-07-28T06:43:52.739Z,23.08
2022-07-28T06:46:19.987Z,23.17
2022-07-28T06:48:46.909Z,23.29
2022-07-28T06:51:18.969Z,23.42
2022-07-28T06:53:48.457Z,23.46
2022-07-28T06:56:15.822Z,23.54
2022-07-28T06:58:43.857Z,23.67
2022-07-28T07:01:15.019Z,23.89
2022-07-28T07:03:43.186Z,23.87
2022-07-28T07:06:10.910Z,23.85
2022-07-28T07:08:38.290Z,24.05
2022-07-28T07:11:05.093Z,24.23
2022-07-28T07:13:33.139Z,24.38
2022-07-28T07:16:00.364Z,24.41
2022-07-28T07:18:27.256Z,24.57
2022-07-28T07:20:54.768Z,24.75
2022-07-28T07:23:21.511Z,25.09
2022-07-28T07:25:48.289Z,25.20
2022-07-28T07:28:14.906Z,25.08
2022-07-28T07:30:41.729Z,25.38
2022-07-28T07:33:09.694Z,25.70
2022-07-28T07:35:37.977Z,25.89
2022-07-28T07:38:04.897Z,26.03
2022-07-28T07:40:32.063Z,26.27
2022-07-28T07:42:58.699Z,26.33
2022-07-28T07:45:25.344Z,26.97
2022-07-28T07:47:52.040Z,26.63
2022-07-28T07:50:18.786Z,26.17
2022-07-28T07:52:45.498Z,25.85
2022-07-28T07:55:12.227Z,25.50
2022-07-28T07:57:38.932Z,25.38
2022-07-28T08:00:07.608Z,25.68
2022-07-28T08:02:54.361Z,25.89
2022-07-28T08:05:21.136Z,26.02
2022-07-28T08:08:02.138Z,25.88
2022-07-28T08:10:29.051Z,26.02
2022-07-28T08:12:55.752Z,26.33
2022-07-28T08:15:22.456Z,26.73
2022-07-28T08:17:49.262Z,27.29
2022-07-28T08:20:15.891Z,27.59
2022-07-28T08:22:54.935Z,27.71
2022-07-28T08:25:22.250Z,27.92
2022-07-28T08:27:49.033Z,28.33
2022-07-28T08:30:21.695Z,28.09
2022-07-28T08:32:56.462Z,27.95
2022-07-28T08:35:34.116Z,28.21
2022-07-28T08:38:02.834Z,31.30
2022-07-28T08:40:32.164Z,35.90
2022-07-28T08:43:13.892Z,38.51
2022-07-28T08:45:44.457Z,40.46
2022-07-28T08:48:12.216Z,42.72
2022-07-28T08:50:39.550Z,41.44
2022-07-28T08:53:07.858Z,40.15
2022-07-28T08:55:36.461Z,39.93
2022-07-28T08:58:03.987Z,41.86
2022-07-28T09:00:30.684Z,42.29
2022-07-28T09:02:58.359Z,39.18
2022-07-28T09:05:25.132Z,36.69
2022-07-28T09:07:55.606Z,34.67
2022-07-28T09:10:23.044Z,33.89
2022-07-28T09:12:49.834Z,33.00
2022-07-28T09:15:16.657Z,32.87
2022-07-28T09:17:43.499Z,34.97
2022-07-28T09:20:12.005Z,38.73
2022-07-28T09:23:41.854Z,42.72
2022-07-28T09:26:11.397Z,46.37
2022-07-28T09:28:57.263Z,48.57
2022-07-28T09:31:26.300Z,48.71
2022-07-28T09:34:01.546Z,47.86
2022-07-28T09:36:30.071Z,48.74
2022-07-28T09:38:57.109Z,50.29
2022-07-28T09:41:24.042Z,51.70
2022-07-28T09:43:55.346Z,52.68
2022-07-28T09:46:25.681Z,52.63
2022-07-28T09:49:00.557Z,51.77
2022-07-28T09:51:33.411Z,50.33
2022-07-28T09:54:14.525Z,49.88
2022-07-28T09:56:45.611Z,49.35
2022-07-28T09:59:14.997Z,48.00
2022-07-28T10:01:59.174Z,50.19
2022-07-28T10:04:42.053Z,51.73
2022-07-28T10:07:11.387Z,52.41
2022-07-28T10:09:39.131Z,52.44
2022-07-28T10:12:19.438Z,52.42
2022-07-28T10:14:47.378Z,52.03
2022-07-28T10:17:29.283Z,50.92
2022-07-28T10:20:06.988Z,48.74
2022-07-28T10:22:39.504Z,46.75
2022-07-28T10:25:12.581Z,43.67
2022-07-28T10:27:41.922Z,41.52
2022-07-28T10:30:09.547Z,41.60
2022-07-28T10:32:43.152Z,41.48
2022-07-28T10:35:14.708Z,42.04
2022-07-28T10:37:54.238Z,41.62
2022-07-28T10:40:25.512Z,40.56
2022-07-28T10:42:53.218Z,39.54
2022-07-28T10:45:20.361Z,39.42
2022-07-28T10:47:48.165Z,38.99
2022-07-28T10:50:16.130Z,39.33
2022-07-28T10:52:49.896Z,39.38
2022-07-28T10:55:33.365Z,38.97
2022-07-28T10:58:13.705Z,40.42
2022-07-28T11:00:56.004Z,42.11
2022-07-28T11:03:47.151Z,42.30
2022-07-28T11:06:36.990Z,41.36
2022-07-28T11:09:15.655Z,42.98
2022-07-28T11:11:46.059Z,44.88
2022-07-28T11:14:37.175Z,47.20
2022-07-28T11:17:04.142Z,49.11
2022-07-28T11:20:00.808Z,50.09
2022-07-28T11:22:33.642Z,50.12
2022-07-28T11:25:19.149Z,51.27
2022-07-28T11:27:50.686Z,50.22
2022-07-28T11:30:32.958Z,49.24
2022-07-28T11:33:01.161Z,47.66
2022-07-28T11:35:33.274Z,47.31
2022-07-28T11:38:03.016Z,47.34
2022-07-28T11:40:32.700Z,48.58
2022-07-28T11:43:22.191Z,49.45
2022-07-28T11:45:55.454Z,48.44
2022-07-28T11:48:23.271Z,47.04
2022-07-28T11:51:05.205Z,45.56
2022-07-28T11:53:42.995Z,46.76
2022-07-28T11:56:15.359Z,47.40
2022-07-28T11:58:43.254Z,47.67
2022-07-28T12:01:18.105Z,46.61
2022-07-28T12:03:49.998Z,45.86
2022-07-28T12:06:27.201Z,44.71
2022-07-28T12:08:59.502Z,44.17
2022-07-28T12:11:31.768Z,43.11
2022-07-28T12:14:04.432Z,42.35
2022-07-28T12:16:32.688Z,43.02
2022-07-28T12:19:01.821Z,42.40
2022-07-28T12:21:47.785Z,41.33
2022-07-28T12:24:28.353Z,40.09
2022-07-28T12:26:57.666Z,39.20
2022-07-28T12:29:35.892Z,38.32
2022-07-28T12:32:09.946Z,37.24
2022-07-28T12:34:39.721Z,36.98
2022-07-28T12:37:09.836Z,36.84
2022-07-28T12:39:39.782Z,36.60
2022-07-28T12:42:08.881Z,36.25
2022-07-28T12:44:43.757Z,35.93
2022-07-28T12:47:15.539Z,35.86
2022-07-28T12:49:44.015Z,35.65
2022-07-28T12:52:22.238Z,35.55
2022-07-28T12:54:55.660Z,35.30
2022-07-28T12:57:48.704Z,35.31
2022-07-28T13:00:20.834Z,35.35
2022-07-28T13:02:49.618Z,35.32
2022-07-28T13:05:56.403Z,35.43
2022-07-28T13:08:24.606Z,35.33
2022-07-28T13:10:56.620Z,35.04
2022-07-28T13:13:24.434Z,35.14
2022-07-28T13:16:17.161Z,35.63
2022-07-28T13:18:53.472Z,35.77
2022-07-28T13:21:58.816Z,35.79
2022-07-28T13:24:27.568Z,35.50
2022-07-28T13:26:54.822Z,35.47
2022-07-28T13:29:22.490Z,35.50
2022-07-28T13:31:50.235Z,35.42
2022-07-28T13:34:17.167Z,35.29
2022-07-28T13:36:44.060Z,35.06
2022-07-28T13:39:10.917Z,34.70
2022-07-28T13:41:57.971Z,34.44
2022-07-28T13:44:24.426Z,34.63
2022-07-28T13:46:51.631Z,34.61
2022-07-28T13:49:21.281Z,34.69
2022-07-28T13:51:50.983Z,34.65
2022-07-28T13:54:19.517Z,34.56
2022-07-28T13:57:05.687Z,34.52
2022-07-28T13:59:32.459Z,34.34
2022-07-28T14:02:03.292Z,34.42
2022-07-28T14:04:30.039Z,34.36
2022-07-28T14:06:56.651Z,34.51
2022-07-28T14:09:23.385Z,34.32
2022-07-28T14:11:53.587Z,34.29
2022-07-28T14:14:24.955Z,34.37
2022-07-28T14:16:54.560Z,34.27
2022-07-28T14:19:38.996Z,34.09
2022-07-28T14:22:13.755Z,33.98
2022-07-28T14:24:42.189Z,33.74
2022-07-28T14:27:10.306Z,33.51
2022-07-28T14:29:37.807Z,33.32
2022-07-28T14:32:04.795Z,33.26
2022-07-28T14:34:31.579Z,33.06
2022-07-28T14:37:01.280Z,32.78
2022-07-28T14:39:34.000Z,32.37
2022-07-28T14:42:00.653Z,32.33
2022-07-28T14:44:27.696Z,32.35
2022-07-28T14:46:54.465Z,32.41
2022-07-28T14:49:21.352Z,32.43
2022-07-28T14:51:48.122Z,32.39
2022-07-28T14:54:15.325Z,32.52
2022-07-28T14:56:42.348Z,32.58
2022-07-28T14:59:09.535Z,32.52
2022-07-28T15:01:36.617Z,32.44
2022-07-28T15:04:04.756Z,32.48
2022-07-28T15:06:31.540Z,32.51
2022-07-28T15:08:58.475Z,32.54
2022-07-28T15:11:26.088Z,32.50
2022-07-28T15:13:52.826Z,32.54
2022-07-28T15:16:19.837Z,32.59
2022-07-28T15:18:46.562Z,32.60
2022-07-28T15:21:16.698Z,32.54
2022-07-28T15:23:44.141Z,32.62
2022-07-28T15:26:11.313Z,32.58
2022-07-28T15:28:38.578Z,32.55
2022-07-28T15:31:08.393Z,32.79
2022-07-28T15:33:41.080Z,33.04
2022-07-28T15:36:15.693Z,32.96
2022-07-28T15:38:47.544Z,32.82
2022-07-28T15:41:16.499Z,32.68
2022-07-28T15:43:43.894Z,32.60
2022-07-28T15:46:13.054Z,32.55
2022-07-28T15:48:41.754Z,32.35
2022-07-28T15:51:09.108Z,32.39
2022-07-28T15:53:36.854Z,32.46
2022-07-28T15:56:04.681Z,32.44
2022-07-28T15:58:31.937Z,32.35
2022-07-28T16:00:59.291Z,32.30
2022-07-28T16:03:28.955Z,32.26
2022-07-28T16:05:56.053Z,32.20
2022-07-28T16:08:23.317Z,31.97
2022-07-28T16:10:51.519Z,31.57
2022-07-28T16:13:31.230Z,31.49
2022-07-28T16:16:22.016Z,31.38
2022-07-28T16:18:49.218Z,31.17
2022-07-28T16:21:15.932Z,31.12
2022-07-28T16:23:42.713Z,31.23
2022-07-28T16:26:10.641Z,31.32
2022-07-28T16:28:37.506Z,31.26
2022-07-28T16:31:04.545Z,31.14
2022-07-28T16:33:33.802Z,31.05
2022-07-28T16:36:02.142Z,31.07
2022-07-28T16:38:28.878Z,31.07
2022-07-28T16:40:57.084Z,31.00
2022-07-28T16:43:23.714Z,30.93
2022-07-28T16:45:50.339Z,30.93
2022-07-28T16:48:17.319Z,30.94
2022-07-28T16:50:46.178Z,30.90
2022-07-28T16:53:13.943Z,30.76
2022-07-28T16:55:42.262Z,30.66
2022-07-28T16:58:09.165Z,30.61
2022-07-28T17:00:36.002Z,30.49
2022-07-28T17:03:02.750Z,30.50
2022-07-28T17:05:29.510Z,30.55
2022-07-28T17:07:56.254Z,30.46
2022-07-28T17:10:27.026Z,30.43
2022-07-28T17:12:54.487Z,30.47
2022-07-28T17:15:22.617Z,30.52
2022-07-28T17:17:51.072Z,30.52
2022-07-28T17:20:19.107Z,30.51
2022-07-28T17:22:45.854Z,30.40
2022-07-28T17:27:59.540Z,30.17
2022-07-28T17:30:26.572Z,30.09
2022-07-28T17:32:58.969Z,30.12
2022-07-28T17:35:34.477Z,30.03
2022-07-28T17:38:03.377Z,29.94
2022-07-28T17:40:30.292Z,29.88
2022-07-28T17:42:57.139Z,29.86
2022-07-28T17:45:26.565Z,29.81
2022-07-28T17:47:53.253Z,29.79
2022-07-28T17:50:20.454Z,29.77
2022-07-28T17:52:47.256Z,29.71
2022-07-28T17:55:37.479Z,29.69
2022-07-28T17:58:27.919Z,29.47
2022-07-28T18:01:09.629Z,29.37
2022-07-28T18:03:59.387Z,29.30
2022-07-28T18:06:36.956Z,29.19
2022-07-28T18:09:07.861Z,29.04
2022-07-28T18:11:36.923Z,29.01
2022-07-28T18:14:22.126Z,28.95
2022-07-28T18:16:48.823Z,28.99
2022-07-28T18:19:15.569Z,29.03
2022-07-28T18:21:43.617Z,29.02
2022-07-28T18:24:10.315Z,28.99
2022-07-28T18:26:36.977Z,28.96
2022-07-28T18:29:03.732Z,28.93
2022-07-28T18:31:30.955Z,28.94
2022-07-28T18:33:57.665Z,28.95
2022-07-28T18:36:24.385Z,28.93
2022-07-28T18:38:51.053Z,28.93
2022-07-28T18:41:17.910Z,28.91
2022-07-28T18:43:44.601Z,28.86
2022-07-28T18:46:11.396Z,28.83
2022-07-28T18:48:38.246Z,28.78
2022-07-28T18:51:05.238Z,28.74
2022-07-28T18:53:31.899Z,28.66
2022-07-28T18:55:58.609Z,28.62
2022-07-28T18:58:25.345Z,28.57
2022-07-28T19:00:52.148Z,28.51
2022-07-28T19:03:18.995Z,28.43
2022-07-28T19:05:46.471Z,28.37
2022-07-28T19:08:13.749Z,28.32
2022-07-28T19:10:40.538Z,28.26
2022-07-28T19:13:12.508Z,28.20
2022-07-28T19:15:40.918Z,28.14
2022-07-28T19:18:10.065Z,28.09
2022-07-28T19:20:39.863Z,28.04
2022-07-28T19:23:06.855Z,28.02
2022-07-28T19:25:35.798Z,27.99
2022-07-28T19:28:02.797Z,27.98
2022-07-28T19:30:32.006Z,27.97
2022-07-28T19:32:59.078Z,27.93
2022-07-28T19:35:26.330Z,27.83
2022-07-28T19:37:53.246Z,27.83
2022-07-28T19:40:19.991Z,27.81
2022-07-28T19:42:48.598Z,27.77
2022-07-28T19:45:15.571Z,27.71
2022-07-28T19:47:42.643Z,27.67
2022-07-28T19:50:09.620Z,27.66
2022-07-28T19:52:37.630Z,27.61
2022-07-28T19:55:05.952Z,27.60
2022-07-28T19:57:34.462Z,27.57
2022-07-28T20:00:04.578Z,27.54
2022-07-28T20:02:38.805Z,27.49
2022-07-28T20:05:06.793Z,27.45
2022-07-28T20:07:33.574Z,27.41
2022-07-28T20:10:01.033Z,27.38
2022-07-28T20:12:32.824Z,27.36
2022-07-28T20:15:03.835Z,27.33
2022-07-28T20:17:38.632Z,27.27
2022-07-28T20:20:13.105Z,27.22
2022-07-28T20:22:41.451Z,27.16
2022-07-28T20:25:10.104Z,27.10
2022-07-28T20:27:41.595Z,27.08
2022-07-28T20:30:10.270Z,27.00
2022-07-28T20:32:38.182Z,26.90
2022-07-28T20:35:06.821Z,26.86
2022-07-28T20:37:36.047Z,26.77
2022-07-28T20:40:08.522Z,26.72
2022-07-28T20:42:36.767Z,26.67
2022-07-28T20:45:04.532Z,26.62
2022-07-28T20:47:32.826Z,26.59
2022-07-28T20:50:00.826Z,26.58
2022-07-28T20:52:27.743Z,26.56
2022-07-28T20:54:55.183Z,26.55
2022-07-28T20:57:25.150Z,26.53
2022-07-28T20:59:52.102Z,26.49
2022-07-28T21:02:23.224Z,26.49
2022-07-28T21:04:50.836Z,26.48
2022-07-28T21:08:04.684Z,26.49
2022-07-28T21:10:08.220Z,26.48
2022-07-28T21:12:37.133Z,26.49
2022-07-28T21:15:05.976Z,26.49
2022-07-28T21:17:32.815Z,26.44
2022-07-28T21:19:59.763Z,26.39
2022-07-28T21:22:27.068Z,26.35
2022-07-28T21:24:55.564Z,26.32
2022-07-28T21:27:23.915Z,26.28
2022-07-28T21:32:18.395Z,26.27
2022-07-28T21:34:45.558Z,26.27
2022-07-28T21:37:13.089Z,26.28
2022-07-28T21:39:40.532Z,26.25
2022-07-28T21:42:09.126Z,26.22
2022-07-28T21:44:37.587Z,26.18
2022-07-28T21:47:04.406Z,26.17
2022-07-28T21:49:32.271Z,26.20
2022-07-28T21:51:59.580Z,26.22
2022-07-28T21:54:26.747Z,26.21
2022-07-28T21:56:53.548Z,26.18
2022-07-28T21:59:20.243Z,26.16
2022-07-28T22:01:47.701Z,26.13
2022-07-28T22:04:15.197Z,26.16
2022-07-28T22:06:46.086Z,26.21
2022-07-28T22:09:14.379Z,26.26
2022-07-28T22:11:41.371Z,26.31
2022-07-28T22:14:08.105Z,26.35
2022-07-28T22:16:35.077Z,26.39
2022-07-28T22:19:01.884Z,26.42
2022-07-28T22:21:28.634Z,26.44
2022-07-28T22:23:55.912Z,26.46
2022-07-28T22:26:23.516Z,26.48
2022-07-28T22:28:50.248Z,26.48
2022-07-28T22:31:17.182Z,26.47
2022-07-28T22:33:43.935Z,26.39
2022-07-28T22:36:10.846Z,26.33
2022-07-28T22:38:37.895Z,26.13
2022-07-28T22:41:04.577Z,25.96
2022-07-28T22:43:33.549Z,25.88
2022-07-28T22:46:00.430Z,25.94
2022-07-28T22:48:27.338Z,26.03
2022-07-28T22:50:53.978Z,26.05
2022-07-28T22:53:20.606Z,26.06
2022-07-28T22:55:47.287Z,26.12
2022-07-28T22:58:13.947Z,26.10
2022-07-28T23:00:40.606Z,26.15
2022-07-28T23:03:07.292Z,26.11
2022-07-28T23:05:39.738Z,26.01
2022-07-28T23:08:06.451Z,25.97
2022-07-28T23:10:33.297Z,25.93
2022-07-28T23:13:00.323Z,25.89
2022-07-28T23:15:40.638Z,25.84
2022-07-28T23:18:11.932Z,25.70
2022-07-28T23:20:39.962Z,25.65
2022-07-28T23:23:07.184Z,25.63
2022-07-28T23:25:36.609Z,25.58
2022-07-28T23:28:03.508Z,25.48
2022-07-28T23:30:30.181Z,25.37
2022-07-28T23:32:56.964Z,25.37
2022-07-28T23:35:23.836Z,25.36
2022-07-28T23:37:50.576Z,25.34
2022-07-28T23:40:17.473Z,25.35
2022-07-28T23:42:44.177Z,25.31
2022-07-28T23:45:11.194Z,25.32
2022-07-28T23:47:37.941Z,25.26
2022-07-28T23:50:05.509Z,25.27
2022-07-28T23:52:32.333Z,25.25
2022-07-28T23:54:59.007Z,25.26
2022-07-28T23:57:25.759Z,25.23
2022-07-28T23:59:58.981Z,25.24
